sensor_id;sensor_type;location;lat;lon;timestamp;P1;durP1;ratioP1;P2;durP2;ratioP2
34405;SDS011;20658;45.630;8.886;2023-05-07T00:00:04;14.15;;;10.88;;
34405;SDS011;20658;45.630;8.886;2023-05-07T00:02:41;16.40;;;11.20;;
34405;SDS011;20658;45.630;8.886;2023-05-07T00:05:15;18.77;;;12.55;;
34405;SDS011;20658;45.630;8.886;2023-05-07T00:07:44;20.05;;;13.35;;
34405;SDS011;20658;45.630;8.886;2023-05-07T00:10:12;20.50;;;12.50;;
34405;SDS011;20658;45.630;8.886;2023-05-07T00:12:45;14.55;;;8.68;;
34405;SDS011;20658;45.630;8.886;2023-05-07T00:15:19;14.13;;;8.43;;
34405;SDS011;20658;45.630;8.886;2023-05-07T00:17:55;20.13;;;9.90;;
34405;SDS011;20658;45.630;8.886;2023-05-07T00:20:29;12.43;;;5.70;;
34405;SDS011;20658;45.630;8.886;2023-05-07T00:22:58;10.55;;;5.97;;
34405;SDS011;20658;45.630;8.886;2023-05-07T00:25:31;11.25;;;5.30;;
34405;SDS011;20658;45.630;8.886;2023-05-07T00:28:05;10.10;;;4.70;;
34405;SDS011;20658;45.630;8.886;2023-05-07T00:30:33;10.55;;;4.78;;
34405;SDS011;20658;45.630;8.886;2023-05-07T00:33:03;7.93;;;4.75;;
34405;SDS011;20658;45.630;8.886;2023-05-07T00:35:36;7.07;;;3.70;;
34405;SDS011;20658;45.630;8.886;2023-05-07T00:38:04;5.13;;;3.38;;
34405;SDS011;20658;45.630;8.886;2023-05-07T00:40:33;7.28;;;3.40;;
34405;SDS011;20658;45.630;8.886;2023-05-07T00:43:01;8.95;;;2.92;;
34405;SDS011;20658;45.630;8.886;2023-05-07T00:45:35;5.90;;;2.30;;
34405;SDS011;20658;45.630;8.886;2023-05-07T00:48:09;5.25;;;2.38;;
34405;SDS011;20658;45.630;8.886;2023-05-07T00:50:43;8.00;;;2.70;;
34405;SDS011;20658;45.630;8.886;2023-05-07T00:53:18;4.65;;;2.47;;
34405;SDS011;20658;45.630;8.886;2023-05-07T00:55:46;7.30;;;2.50;;
34405;SDS011;20658;45.630;8.886;2023-05-07T00:58:21;7.90;;;3.28;;
34405;SDS011;20658;45.630;8.886;2023-05-07T01:00:54;12.77;;;3.72;;
34405;SDS011;20658;45.630;8.886;2023-05-07T01:03:24;5.43;;;2.63;;
34405;SDS011;20658;45.630;8.886;2023-05-07T01:05:52;10.13;;;3.58;;
34405;SDS011;20658;45.630;8.886;2023-05-07T01:08:27;7.03;;;2.83;;
34405;SDS011;20658;45.630;8.886;2023-05-07T01:11:01;14.43;;;4.55;;
34405;SDS011;20658;45.630;8.886;2023-05-07T01:13:30;12.65;;;4.03;;
34405;SDS011;20658;45.630;8.886;2023-05-07T01:15:59;10.90;;;3.92;;
34405;SDS011;20658;45.630;8.886;2023-05-07T01:18:34;9.07;;;2.97;;
34405;SDS011;20658;45.630;8.886;2023-05-07T01:21:07;9.25;;;3.42;;
34405;SDS011;20658;45.630;8.886;2023-05-07T01:23:46;7.30;;;3.05;;
34405;SDS011;20658;45.630;8.886;2023-05-07T01:26:15;8.55;;;3.25;;
34405;SDS011;20658;45.630;8.886;2023-05-07T01:28:45;13.70;;;3.42;;
34405;SDS011;20658;45.630;8.886;2023-05-07T01:31:14;7.03;;;3.35;;
34405;SDS011;20658;45.630;8.886;2023-05-07T01:33:45;8.88;;;3.65;;
34405;SDS011;20658;45.630;8.886;2023-05-07T01:36:17;6.18;;;3.38;;
34405;SDS011;20658;45.630;8.886;2023-05-07T01:38:50;9.85;;;4.20;;
34405;SDS011;20658;45.630;8.886;2023-05-07T01:41:19;8.40;;;3.65;;
34405;SDS011;20658;45.630;8.886;2023-05-07T01:43:49;8.45;;;3.47;;
34405;SDS011;20658;45.630;8.886;2023-05-07T01:46:19;14.43;;;3.67;;
34405;SDS011;20658;45.630;8.886;2023-05-07T01:48:48;9.02;;;3.78;;
34405;SDS011;20658;45.630;8.886;2023-05-07T01:51:18;10.15;;;4.22;;
34405;SDS011;20658;45.630;8.886;2023-05-07T01:53:47;11.30;;;4.00;;
34405;SDS011;20658;45.630;8.886;2023-05-07T01:56:19;11.32;;;4.28;;
34405;SDS011;20658;45.630;8.886;2023-05-07T01:58:48;6.40;;;3.40;;
34405;SDS011;20658;45.630;8.886;2023-05-07T02:01:18;8.95;;;3.80;;
34405;SDS011;20658;45.630;8.886;2023-05-07T02:03:48;8.93;;;3.95;;
34405;SDS011;20658;45.630;8.886;2023-05-07T02:06:22;7.18;;;3.70;;
34405;SDS011;20658;45.630;8.886;2023-05-07T02:08:54;9.48;;;4.07;;
34405;SDS011;20658;45.630;8.886;2023-05-07T02:11:28;6.57;;;4.50;;
34405;SDS011;20658;45.630;8.886;2023-05-07T02:13:57;9.27;;;5.32;;
34405;SDS011;20658;45.630;8.886;2023-05-07T02:16:26;13.85;;;6.65;;
34405;SDS011;20658;45.630;8.886;2023-05-07T02:18:54;12.48;;;7.00;;
34405;SDS011;20658;45.630;8.886;2023-05-07T02:21:23;13.13;;;8.15;;
34405;SDS011;20658;45.630;8.886;2023-05-07T02:23:52;13.82;;;8.80;;
34405;SDS011;20658;45.630;8.886;2023-05-07T02:26:21;16.63;;;9.40;;
34405;SDS011;20658;45.630;8.886;2023-05-07T02:28:50;18.27;;;10.10;;
34405;SDS011;20658;45.630;8.886;2023-05-07T02:31:20;14.85;;;9.38;;
34405;SDS011;20658;45.630;8.886;2023-05-07T02:33:53;17.65;;;9.70;;
34405;SDS011;20658;45.630;8.886;2023-05-07T02:36:26;17.23;;;9.65;;
34405;SDS011;20658;45.630;8.886;2023-05-07T02:39:01;18.60;;;9.48;;
34405;SDS011;20658;45.630;8.886;2023-05-07T02:41:31;14.65;;;7.28;;
34405;SDS011;20658;45.630;8.886;2023-05-07T02:44:00;13.05;;;7.70;;
34405;SDS011;20658;45.630;8.886;2023-05-07T02:46:34;20.58;;;8.30;;
34405;SDS011;20658;45.630;8.886;2023-05-07T02:49:10;12.63;;;7.00;;
34405;SDS011;20658;45.630;8.886;2023-05-07T02:51:44;12.20;;;6.32;;
34405;SDS011;20658;45.630;8.886;2023-05-07T02:54:21;9.00;;;5.65;;
34405;SDS011;20658;45.630;8.886;2023-05-07T02:56:49;11.50;;;6.32;;
34405;SDS011;20658;45.630;8.886;2023-05-07T02:59:19;18.35;;;7.00;;
34405;SDS011;20658;45.630;8.886;2023-05-07T03:01:52;16.80;;;6.93;;
34405;SDS011;20658;45.630;8.886;2023-05-07T03:04:21;16.50;;;7.00;;
34405;SDS011;20658;45.630;8.886;2023-05-07T03:06:50;15.63;;;6.63;;
34405;SDS011;20658;45.630;8.886;2023-05-07T03:09:18;9.82;;;5.40;;
34405;SDS011;20658;45.630;8.886;2023-05-07T03:11:46;16.65;;;5.10;;
34405;SDS011;20658;45.630;8.886;2023-05-07T03:14:15;13.40;;;5.28;;
34405;SDS011;20658;45.630;8.886;2023-05-07T03:16:45;13.85;;;5.35;;
34405;SDS011;20658;45.630;8.886;2023-05-07T03:19:18;10.23;;;4.60;;
34405;SDS011;20658;45.630;8.886;2023-05-07T03:21:51;12.02;;;4.72;;
34405;SDS011;20658;45.630;8.886;2023-05-07T03:24:20;9.77;;;4.82;;
34405;SDS011;20658;45.630;8.886;2023-05-07T03:26:53;7.90;;;4.40;;
34405;SDS011;20658;45.630;8.886;2023-05-07T03:29:29;9.88;;;4.55;;
34405;SDS011;20658;45.630;8.886;2023-05-07T03:32:04;9.77;;;4.38;;
34405;SDS011;20658;45.630;8.886;2023-05-07T03:34:39;5.13;;;3.47;;
34405;SDS011;20658;45.630;8.886;2023-05-07T03:37:13;6.65;;;3.90;;
34405;SDS011;20658;45.630;8.886;2023-05-07T03:39:42;5.85;;;3.03;;
34405;SDS011;20658;45.630;8.886;2023-05-07T03:42:16;10.55;;;4.03;;
34405;SDS011;20658;45.630;8.886;2023-05-07T03:44:51;7.32;;;3.53;;
34405;SDS011;20658;45.630;8.886;2023-05-07T03:47:26;9.45;;;3.50;;
34405;SDS011;20658;45.630;8.886;2023-05-07T03:49:59;5.50;;;2.95;;
34405;SDS011;20658;45.630;8.886;2023-05-07T03:52:28;5.00;;;2.90;;
34405;SDS011;20658;45.630;8.886;2023-05-07T03:54:59;7.63;;;2.83;;
34405;SDS011;20658;45.630;8.886;2023-05-07T03:57:35;6.43;;;2.80;;
34405;SDS011;20658;45.630;8.886;2023-05-07T04:00:04;10.05;;;3.80;;
34405;SDS011;20658;45.630;8.886;2023-05-07T04:02:47;6.70;;;3.47;;
34405;SDS011;20658;45.630;8.886;2023-05-07T04:05:22;8.50;;;4.22;;
34405;SDS011;20658;45.630;8.886;2023-05-07T04:07:57;6.30;;;3.70;;
34405;SDS011;20658;45.630;8.886;2023-05-07T04:10:37;8.18;;;4.05;;
34405;SDS011;20658;45.630;8.886;2023-05-07T04:13:10;6.43;;;2.83;;
34405;SDS011;20658;45.630;8.886;2023-05-07T04:15:45;6.63;;;3.00;;
34405;SDS011;20658;45.630;8.886;2023-05-07T04:18:21;7.38;;;2.83;;
34405;SDS011;20658;45.630;8.886;2023-05-07T04:20:55;5.47;;;2.80;;
34405;SDS011;20658;45.630;8.886;2023-05-07T04:23:23;6.55;;;3.08;;
34405;SDS011;20658;45.630;8.886;2023-05-07T04:26:00;5.28;;;2.95;;
34405;SDS011;20658;45.630;8.886;2023-05-07T04:28:34;9.13;;;3.17;;
34405;SDS011;20658;45.630;8.886;2023-05-07T04:31:03;8.70;;;3.30;;
34405;SDS011;20658;45.630;8.886;2023-05-07T04:33:35;4.32;;;2.28;;
34405;SDS011;20658;45.630;8.886;2023-05-07T04:36:06;4.93;;;2.65;;
34405;SDS011;20658;45.630;8.886;2023-05-07T04:38:42;6.68;;;3.20;;
34405;SDS011;20658;45.630;8.886;2023-05-07T04:41:12;5.40;;;2.97;;
34405;SDS011;20658;45.630;8.886;2023-05-07T04:43:42;4.75;;;3.20;;
34405;SDS011;20658;45.630;8.886;2023-05-07T04:46:16;8.25;;;4.13;;
34405;SDS011;20658;45.630;8.886;2023-05-07T04:48:47;6.18;;;3.17;;
34405;SDS011;20658;45.630;8.886;2023-05-07T04:51:21;7.00;;;3.30;;
34405;SDS011;20658;45.630;8.886;2023-05-07T04:53:54;6.90;;;3.10;;
34405;SDS011;20658;45.630;8.886;2023-05-07T04:56:23;5.43;;;2.65;;
34405;SDS011;20658;45.630;8.886;2023-05-07T04:58:58;6.13;;;3.40;;
34405;SDS011;20658;45.630;8.886;2023-05-07T05:01:27;11.07;;;3.85;;
34405;SDS011;20658;45.630;8.886;2023-05-07T05:03:57;8.35;;;3.60;;
34405;SDS011;20658;45.630;8.886;2023-05-07T05:06:26;7.07;;;3.00;;
34405;SDS011;20658;45.630;8.886;2023-05-07T05:08:54;5.38;;;2.85;;
34405;SDS011;20658;45.630;8.886;2023-05-07T05:11:24;8.68;;;2.90;;
34405;SDS011;20658;45.630;8.886;2023-05-07T05:13:59;7.43;;;3.35;;
34405;SDS011;20658;45.630;8.886;2023-05-07T05:16:28;5.40;;;2.78;;
34405;SDS011;20658;45.630;8.886;2023-05-07T05:19:03;4.60;;;2.63;;
34405;SDS011;20658;45.630;8.886;2023-05-07T05:21:35;6.53;;;2.70;;
34405;SDS011;20658;45.630;8.886;2023-05-07T05:24:07;4.32;;;1.95;;
34405;SDS011;20658;45.630;8.886;2023-05-07T05:26:40;5.43;;;2.15;;
34405;SDS011;20658;45.630;8.886;2023-05-07T05:29:09;4.03;;;2.60;;
34405;SDS011;20658;45.630;8.886;2023-05-07T05:31:40;5.22;;;2.65;;
34405;SDS011;20658;45.630;8.886;2023-05-07T05:34:11;5.70;;;2.75;;
34405;SDS011;20658;45.630;8.886;2023-05-07T05:36:44;4.82;;;2.13;;
34405;SDS011;20658;45.630;8.886;2023-05-07T05:39:14;7.00;;;3.03;;
34405;SDS011;20658;45.630;8.886;2023-05-07T05:41:47;8.88;;;3.25;;
34405;SDS011;20658;45.630;8.886;2023-05-07T05:44:21;6.97;;;2.53;;
34405;SDS011;20658;45.630;8.886;2023-05-07T05:46:50;5.82;;;3.28;;
34405;SDS011;20658;45.630;8.886;2023-05-07T05:49:27;6.55;;;2.55;;
34405;SDS011;20658;45.630;8.886;2023-05-07T05:52:03;8.70;;;2.85;;
34405;SDS011;20658;45.630;8.886;2023-05-07T05:54:36;6.60;;;2.33;;
34405;SDS011;20658;45.630;8.886;2023-05-07T05:57:10;4.88;;;2.78;;
34405;SDS011;20658;45.630;8.886;2023-05-07T05:59:44;5.57;;;2.90;;
34405;SDS011;20658;45.630;8.886;2023-05-07T06:02:18;3.63;;;2.25;;
34405;SDS011;20658;45.630;8.886;2023-05-07T06:04:53;5.22;;;3.00;;
34405;SDS011;20658;45.630;8.886;2023-05-07T06:07:22;3.85;;;2.55;;
34405;SDS011;20658;45.630;8.886;2023-05-07T06:09:55;8.80;;;2.70;;
34405;SDS011;20658;45.630;8.886;2023-05-07T06:12:30;7.78;;;3.40;;
34405;SDS011;20658;45.630;8.886;2023-05-07T06:15:04;7.22;;;3.47;;
34405;SDS011;20658;45.630;8.886;2023-05-07T06:17:40;5.35;;;3.28;;
34405;SDS011;20658;45.630;8.886;2023-05-07T06:20:15;8.30;;;3.42;;
34405;SDS011;20658;45.630;8.886;2023-05-07T06:22:49;6.88;;;3.35;;
34405;SDS011;20658;45.630;8.886;2023-05-07T06:25:17;8.00;;;3.63;;
34405;SDS011;20658;45.630;8.886;2023-05-07T06:27:51;6.85;;;3.40;;
34405;SDS011;20658;45.630;8.886;2023-05-07T06:30:25;5.63;;;3.72;;
34405;SDS011;20658;45.630;8.886;2023-05-07T06:32:59;7.70;;;3.80;;
34405;SDS011;20658;45.630;8.886;2023-05-07T06:35:33;4.72;;;3.47;;
34405;SDS011;20658;45.630;8.886;2023-05-07T06:38:07;9.55;;;3.38;;
34405;SDS011;20658;45.630;8.886;2023-05-07T06:40:41;7.68;;;3.47;;
34405;SDS011;20658;45.630;8.886;2023-05-07T06:43:15;4.10;;;2.78;;
34405;SDS011;20658;45.630;8.886;2023-05-07T06:46:11;6.88;;;2.67;;
34405;SDS011;20658;45.630;8.886;2023-05-07T06:48:48;6.28;;;2.22;;
34405;SDS011;20658;45.630;8.886;2023-05-07T06:51:24;4.78;;;2.22;;
34405;SDS011;20658;45.630;8.886;2023-05-07T06:54:01;4.45;;;2.45;;
34405;SDS011;20658;45.630;8.886;2023-05-07T06:56:37;8.35;;;2.30;;
34405;SDS011;20658;45.630;8.886;2023-05-07T06:59:06;6.63;;;2.15;;
34405;SDS011;20658;45.630;8.886;2023-05-07T07:01:40;3.22;;;1.90;;
34405;SDS011;20658;45.630;8.886;2023-05-07T07:04:16;4.50;;;2.15;;
34405;SDS011;20658;45.630;8.886;2023-05-07T07:06:58;3.25;;;2.00;;
34405;SDS011;20658;45.630;8.886;2023-05-07T07:09:32;9.93;;;2.15;;
34405;SDS011;20658;45.630;8.886;2023-05-07T07:12:07;4.63;;;2.20;;
34405;SDS011;20658;45.630;8.886;2023-05-07T07:14:41;3.75;;;1.90;;
34405;SDS011;20658;45.630;8.886;2023-05-07T07:17:14;3.45;;;1.85;;
34405;SDS011;20658;45.630;8.886;2023-05-07T07:19:48;5.25;;;2.05;;
34405;SDS011;20658;45.630;8.886;2023-05-07T07:22:23;3.53;;;1.73;;
34405;SDS011;20658;45.630;8.886;2023-05-07T07:24:56;3.28;;;1.83;;
34405;SDS011;20658;45.630;8.886;2023-05-07T07:27:30;3.28;;;1.35;;
34405;SDS011;20658;45.630;8.886;2023-05-07T07:30:04;3.47;;;2.00;;
34405;SDS011;20658;45.630;8.886;2023-05-07T07:32:44;3.53;;;1.88;;
34405;SDS011;20658;45.630;8.886;2023-05-07T07:35:18;2.95;;;2.00;;
34405;SDS011;20658;45.630;8.886;2023-05-07T07:37:53;6.35;;;1.88;;
34405;SDS011;20658;45.630;8.886;2023-05-07T07:40:27;2.45;;;1.77;;
34405;SDS011;20658;45.630;8.886;2023-05-07T07:43:00;4.80;;;1.60;;
34405;SDS011;20658;45.630;8.886;2023-05-07T07:45:34;7.10;;;2.38;;
34405;SDS011;20658;45.630;8.886;2023-05-07T07:48:07;3.05;;;1.75;;
34405;SDS011;20658;45.630;8.886;2023-05-07T07:50:40;4.78;;;1.67;;
34405;SDS011;20658;45.630;8.886;2023-05-07T07:53:16;5.85;;;2.03;;
34405;SDS011;20658;45.630;8.886;2023-05-07T07:55:45;7.53;;;1.73;;
34405;SDS011;20658;45.630;8.886;2023-05-07T07:58:21;4.47;;;2.15;;
34405;SDS011;20658;45.630;8.886;2023-05-07T08:00:57;5.13;;;1.90;;
34405;SDS011;20658;45.630;8.886;2023-05-07T08:03:30;6.20;;;2.50;;
34405;SDS011;20658;45.630;8.886;2023-05-07T08:06:05;4.53;;;1.80;;
34405;SDS011;20658;45.630;8.886;2023-05-07T08:08:40;5.70;;;2.40;;
34405;SDS011;20658;45.630;8.886;2023-05-07T08:11:16;4.95;;;2.03;;
34405;SDS011;20658;45.630;8.886;2023-05-07T08:13:51;4.65;;;2.10;;
34405;SDS011;20658;45.630;8.886;2023-05-07T08:16:24;3.65;;;2.30;;
34405;SDS011;20658;45.630;8.886;2023-05-07T08:19:00;5.32;;;2.38;;
34405;SDS011;20658;45.630;8.886;2023-05-07T08:21:34;3.45;;;2.47;;
34405;SDS011;20658;45.630;8.886;2023-05-07T08:24:12;3.33;;;2.25;;
34405;SDS011;20658;45.630;8.886;2023-05-07T08:26:46;6.82;;;2.50;;
34405;SDS011;20658;45.630;8.886;2023-05-07T08:29:20;5.05;;;2.70;;
34405;SDS011;20658;45.630;8.886;2023-05-07T08:31:54;4.93;;;3.00;;
34405;SDS011;20658;45.630;8.886;2023-05-07T08:34:27;10.07;;;3.45;;
34405;SDS011;20658;45.630;8.886;2023-05-07T08:37:03;6.78;;;3.70;;
34405;SDS011;20658;45.630;8.886;2023-05-07T08:39:37;5.72;;;3.00;;
34405;SDS011;20658;45.630;8.886;2023-05-07T08:42:17;10.82;;;4.07;;
34405;SDS011;20658;45.630;8.886;2023-05-07T08:44:51;5.63;;;3.50;;
34405;SDS011;20658;45.630;8.886;2023-05-07T08:47:29;7.68;;;4.00;;
34405;SDS011;20658;45.630;8.886;2023-05-07T08:50:07;5.45;;;3.63;;
34405;SDS011;20658;45.630;8.886;2023-05-07T08:52:43;7.57;;;4.22;;
34405;SDS011;20658;45.630;8.886;2023-05-07T08:55:19;9.70;;;5.13;;
34405;SDS011;20658;45.630;8.886;2023-05-07T08:57:53;8.00;;;5.38;;
34405;SDS011;20658;45.630;8.886;2023-05-07T09:00:28;9.68;;;5.43;;
34405;SDS011;20658;45.630;8.886;2023-05-07T09:03:02;10.50;;;4.93;;
34405;SDS011;20658;45.630;8.886;2023-05-07T09:05:36;7.32;;;5.93;;
34405;SDS011;20658;45.630;8.886;2023-05-07T09:08:14;10.23;;;5.28;;
34405;SDS011;20658;45.630;8.886;2023-05-07T09:10:49;8.38;;;5.03;;
34405;SDS011;20658;45.630;8.886;2023-05-07T09:13:23;8.45;;;5.03;;
34405;SDS011;20658;45.630;8.886;2023-05-07T09:16:01;10.40;;;4.55;;
34405;SDS011;20658;45.630;8.886;2023-05-07T09:21:14;6.60;;;4.50;;
34405;SDS011;20658;45.630;8.886;2023-05-07T09:23:50;9.25;;;4.68;;
34405;SDS011;20658;45.630;8.886;2023-05-07T09:26:34;6.63;;;3.40;;
34405;SDS011;20658;45.630;8.886;2023-05-07T09:29:10;9.50;;;5.72;;
34405;SDS011;20658;45.630;8.886;2023-05-07T09:31:43;10.45;;;5.03;;
34405;SDS011;20658;45.630;8.886;2023-05-07T09:34:17;10.25;;;6.45;;
34405;SDS011;20658;45.630;8.886;2023-05-07T09:36:51;7.82;;;4.05;;
34405;SDS011;20658;45.630;8.886;2023-05-07T09:39:24;6.38;;;3.00;;
34405;SDS011;20658;45.630;8.886;2023-05-07T09:41:59;3.85;;;2.53;;
34405;SDS011;20658;45.630;8.886;2023-05-07T09:44:32;4.85;;;2.08;;
34405;SDS011;20658;45.630;8.886;2023-05-07T09:47:10;8.27;;;2.35;;
34405;SDS011;20658;45.630;8.886;2023-05-07T09:49:55;5.43;;;2.67;;
34405;SDS011;20658;45.630;8.886;2023-05-07T09:52:30;6.57;;;3.33;;
34405;SDS011;20658;45.630;8.886;2023-05-07T09:55:07;3.85;;;2.20;;
34405;SDS011;20658;45.630;8.886;2023-05-07T09:57:43;3.25;;;2.50;;
34405;SDS011;20658;45.630;8.886;2023-05-07T10:00:19;5.32;;;2.70;;
34405;SDS011;20658;45.630;8.886;2023-05-07T10:03:01;3.28;;;1.90;;
34405;SDS011;20658;45.630;8.886;2023-05-07T10:05:44;3.72;;;2.10;;
34405;SDS011;20658;45.630;8.886;2023-05-07T10:08:20;5.20;;;3.80;;
34405;SDS011;20658;45.630;8.886;2023-05-07T10:10:57;5.63;;;3.30;;
34405;SDS011;20658;45.630;8.886;2023-05-07T10:13:33;5.32;;;2.70;;
34405;SDS011;20658;45.630;8.886;2023-05-07T10:16:09;9.93;;;5.55;;
34405;SDS011;20658;45.630;8.886;2023-05-07T10:18:43;4.47;;;2.55;;
34405;SDS011;20658;45.630;8.886;2023-05-07T10:21:17;6.22;;;2.40;;
34405;SDS011;20658;45.630;8.886;2023-05-07T10:23:58;8.55;;;3.45;;
34405;SDS011;20658;45.630;8.886;2023-05-07T10:26:37;4.25;;;1.80;;
34405;SDS011;20658;45.630;8.886;2023-05-07T10:29:14;3.40;;;2.00;;
34405;SDS011;20658;45.630;8.886;2023-05-07T10:31:57;2.50;;;2.15;;
34405;SDS011;20658;45.630;8.886;2023-05-07T10:34:47;6.25;;;3.47;;
34405;SDS011;20658;45.630;8.886;2023-05-07T10:37:23;5.18;;;2.30;;
34405;SDS011;20658;45.630;8.886;2023-05-07T10:39:57;12.75;;;6.75;;
34405;SDS011;20658;45.630;8.886;2023-05-07T10:42:31;6.53;;;4.75;;
34405;SDS011;20658;45.630;8.886;2023-05-07T10:45:12;6.93;;;4.25;;
34405;SDS011;20658;45.630;8.886;2023-05-07T10:48:06;6.43;;;3.35;;
34405;SDS011;20658;45.630;8.886;2023-05-07T10:50:45;6.75;;;3.92;;
34405;SDS011;20658;45.630;8.886;2023-05-07T10:53:22;5.95;;;3.38;;
34405;SDS011;20658;45.630;8.886;2023-05-07T11:02:24;4.75;;;3.28;;
34405;SDS011;20658;45.630;8.886;2023-05-07T11:05:51;5.05;;;3.20;;
34405;SDS011;20658;45.630;8.886;2023-05-07T11:09:00;4.25;;;3.40;;
34405;SDS011;20658;45.630;8.886;2023-05-07T11:11:46;8.70;;;5.32;;
34405;SDS011;20658;45.630;8.886;2023-05-07T11:14:45;16.48;;;8.85;;
34405;SDS011;20658;45.630;8.886;2023-05-07T11:17:25;6.18;;;4.18;;
34405;SDS011;20658;45.630;8.886;2023-05-07T11:20:06;2.83;;;2.22;;
34405;SDS011;20658;45.630;8.886;2023-05-07T11:22:48;4.78;;;2.75;;
34405;SDS011;20658;45.630;8.886;2023-05-07T11:25:26;4.05;;;2.67;;
34405;SDS011;20658;45.630;8.886;2023-05-07T11:28:20;4.00;;;2.35;;
34405;SDS011;20658;45.630;8.886;2023-05-07T11:31:00;6.07;;;2.90;;
34405;SDS011;20658;45.630;8.886;2023-05-07T11:33:37;4.13;;;2.45;;
34405;SDS011;20658;45.630;8.886;2023-05-07T11:36:15;5.68;;;2.03;;
34405;SDS011;20658;45.630;8.886;2023-05-07T11:38:51;3.88;;;2.53;;
34405;SDS011;20658;45.630;8.886;2023-05-07T11:41:32;4.00;;;2.40;;
34405;SDS011;20658;45.630;8.886;2023-05-07T11:44:02;5.22;;;2.00;;
34405;SDS011;20658;45.630;8.886;2023-05-07T11:46:35;5.38;;;2.28;;
34405;SDS011;20658;45.630;8.886;2023-05-07T11:49:10;3.25;;;1.92;;
34405;SDS011;20658;45.630;8.886;2023-05-07T11:51:44;6.90;;;3.50;;
34405;SDS011;20658;45.630;8.886;2023-05-07T11:54:18;2.78;;;2.15;;
34405;SDS011;20658;45.630;8.886;2023-05-07T11:56:48;2.85;;;1.90;;
34405;SDS011;20658;45.630;8.886;2023-05-07T11:59:22;6.40;;;3.88;;
34405;SDS011;20658;45.630;8.886;2023-05-07T12:01:56;3.85;;;2.30;;
34405;SDS011;20658;45.630;8.886;2023-05-07T12:04:31;3.40;;;2.30;;
34405;SDS011;20658;45.630;8.886;2023-05-07T12:07:00;3.88;;;2.25;;
34405;SDS011;20658;45.630;8.886;2023-05-07T12:09:28;3.75;;;2.35;;
34405;SDS011;20658;45.630;8.886;2023-05-07T12:12:05;3.28;;;2.35;;
34405;SDS011;20658;45.630;8.886;2023-05-07T12:14:37;3.53;;;2.10;;
34405;SDS011;20658;45.630;8.886;2023-05-07T12:17:12;7.40;;;3.45;;
34405;SDS011;20658;45.630;8.886;2023-05-07T12:19:48;3.80;;;3.17;;
34405;SDS011;20658;45.630;8.886;2023-05-07T12:22:22;3.47;;;2.40;;
34405;SDS011;20658;45.630;8.886;2023-05-07T12:24:58;2.20;;;1.90;;
34405;SDS011;20658;45.630;8.886;2023-05-07T12:30:00;3.70;;;1.88;;
34405;SDS011;20658;45.630;8.886;2023-05-07T12:32:33;5.65;;;2.65;;
34405;SDS011;20658;45.630;8.886;2023-05-07T12:35:09;5.88;;;2.50;;
34405;SDS011;20658;45.630;8.886;2023-05-07T12:37:42;4.22;;;1.98;;
34405;SDS011;20658;45.630;8.886;2023-05-07T12:40:16;3.40;;;2.17;;
34405;SDS011;20658;45.630;8.886;2023-05-07T12:42:52;5.13;;;2.60;;
34405;SDS011;20658;45.630;8.886;2023-05-07T12:45:27;6.55;;;2.92;;
34405;SDS011;20658;45.630;8.886;2023-05-07T12:47:55;6.45;;;2.83;;
34405;SDS011;20658;45.630;8.886;2023-05-07T12:50:34;4.75;;;2.03;;
34405;SDS011;20658;45.630;8.886;2023-05-07T12:53:08;3.35;;;2.03;;
34405;SDS011;20658;45.630;8.886;2023-05-07T12:55:45;2.95;;;2.17;;
34405;SDS011;20658;45.630;8.886;2023-05-07T12:58:19;3.42;;;1.92;;
34405;SDS011;20658;45.630;8.886;2023-05-07T13:00:49;5.25;;;2.00;;
34405;SDS011;20658;45.630;8.886;2023-05-07T13:03:22;1.92;;;1.40;;
34405;SDS011;20658;45.630;8.886;2023-05-07T13:05:53;4.70;;;1.88;;
34405;SDS011;20658;45.630;8.886;2023-05-07T13:08:28;1.88;;;1.35;;
34405;SDS011;20658;45.630;8.886;2023-05-07T13:11:04;5.18;;;1.80;;
34405;SDS011;20658;45.630;8.886;2023-05-07T13:13:39;4.07;;;2.08;;
34405;SDS011;20658;45.630;8.886;2023-05-07T13:16:13;2.35;;;1.38;;
34405;SDS011;20658;45.630;8.886;2023-05-07T13:18:47;3.22;;;1.70;;
34405;SDS011;20658;45.630;8.886;2023-05-07T13:21:22;2.10;;;1.52;;
34405;SDS011;20658;45.630;8.886;2023-05-07T13:23:55;2.03;;;1.20;;
34405;SDS011;20658;45.630;8.886;2023-05-07T13:26:29;2.20;;;1.20;;
34405;SDS011;20658;45.630;8.886;2023-05-07T13:28:58;2.45;;;1.38;;
34405;SDS011;20658;45.630;8.886;2023-05-07T13:31:32;2.55;;;1.65;;
34405;SDS011;20658;45.630;8.886;2023-05-07T13:34:06;2.53;;;1.75;;
34405;SDS011;20658;45.630;8.886;2023-05-07T13:36:41;2.65;;;1.67;;
34405;SDS011;20658;45.630;8.886;2023-05-07T13:39:14;4.25;;;1.83;;
34405;SDS011;20658;45.630;8.886;2023-05-07T13:41:47;4.35;;;1.98;;
34405;SDS011;20658;45.630;8.886;2023-05-07T13:44:23;2.25;;;1.73;;
34405;SDS011;20658;45.630;8.886;2023-05-07T13:46:54;2.00;;;1.52;;
34405;SDS011;20658;45.630;8.886;2023-05-07T13:49:30;3.15;;;1.60;;
34405;SDS011;20658;45.630;8.886;2023-05-07T13:52:05;3.78;;;1.75;;
34405;SDS011;20658;45.630;8.886;2023-05-07T13:54:38;3.78;;;1.80;;
34405;SDS011;20658;45.630;8.886;2023-05-07T13:57:11;4.45;;;1.92;;
34405;SDS011;20658;45.630;8.886;2023-05-07T13:59:40;2.92;;;2.03;;
34405;SDS011;20658;45.630;8.886;2023-05-07T14:02:13;3.97;;;2.25;;
34405;SDS011;20658;45.630;8.886;2023-05-07T14:04:47;3.28;;;1.80;;
34405;SDS011;20658;45.630;8.886;2023-05-07T14:07:17;3.03;;;1.80;;
34405;SDS011;20658;45.630;8.886;2023-05-07T14:09:50;3.85;;;1.92;;
34405;SDS011;20658;45.630;8.886;2023-05-07T14:12:23;4.20;;;1.80;;
34405;SDS011;20658;45.630;8.886;2023-05-07T14:14:57;7.00;;;1.77;;
34405;SDS011;20658;45.630;8.886;2023-05-07T14:17:30;2.72;;;1.80;;
34405;SDS011;20658;45.630;8.886;2023-05-07T14:20:03;2.03;;;1.73;;
34405;SDS011;20658;45.630;8.886;2023-05-07T14:22:40;3.92;;;1.55;;
34405;SDS011;20658;45.630;8.886;2023-05-07T14:25:13;5.43;;;2.20;;
34405;SDS011;20658;45.630;8.886;2023-05-07T14:27:47;2.55;;;2.03;;
34405;SDS011;20658;45.630;8.886;2023-05-07T14:30:15;3.55;;;2.38;;
34405;SDS011;20658;45.630;8.886;2023-05-07T14:32:49;2.83;;;1.75;;
34405;SDS011;20658;45.630;8.886;2023-05-07T14:35:22;2.83;;;1.90;;
34405;SDS011;20658;45.630;8.886;2023-05-07T14:37:57;3.72;;;2.05;;
34405;SDS011;20658;45.630;8.886;2023-05-07T14:40:31;2.97;;;1.83;;
34405;SDS011;20658;45.630;8.886;2023-05-07T14:43:05;4.55;;;2.13;;
34405;SDS011;20658;45.630;8.886;2023-05-07T14:45:39;4.30;;;2.58;;
34405;SDS011;20658;45.630;8.886;2023-05-07T14:48:15;2.97;;;1.92;;
34405;SDS011;20658;45.630;8.886;2023-05-07T14:50:49;5.25;;;2.53;;
34405;SDS011;20658;45.630;8.886;2023-05-07T14:53:23;5.13;;;2.10;;
34405;SDS011;20658;45.630;8.886;2023-05-07T14:55:57;4.65;;;2.13;;
34405;SDS011;20658;45.630;8.886;2023-05-07T14:58:31;4.50;;;2.20;;
34405;SDS011;20658;45.630;8.886;2023-05-07T15:01:04;5.35;;;2.47;;
34405;SDS011;20658;45.630;8.886;2023-05-07T15:03:37;5.43;;;2.50;;
34405;SDS011;20658;45.630;8.886;2023-05-07T15:06:11;2.45;;;1.90;;
34405;SDS011;20658;45.630;8.886;2023-05-07T15:08:46;4.75;;;2.40;;
34405;SDS011;20658;45.630;8.886;2023-05-07T15:11:19;5.22;;;2.17;;
34405;SDS011;20658;45.630;8.886;2023-05-07T15:13:52;2.13;;;1.90;;
34405;SDS011;20658;45.630;8.886;2023-05-07T15:16:26;5.35;;;2.03;;
34405;SDS011;20658;45.630;8.886;2023-05-07T15:18:59;2.65;;;1.90;;
34405;SDS011;20658;45.630;8.886;2023-05-07T15:21:33;3.30;;;1.75;;
34405;SDS011;20658;45.630;8.886;2023-05-07T15:24:08;3.75;;;1.60;;
34405;SDS011;20658;45.630;8.886;2023-05-07T15:26:42;2.83;;;1.45;;
34405;SDS011;20658;45.630;8.886;2023-05-07T15:29:15;4.55;;;1.58;;
34405;SDS011;20658;45.630;8.886;2023-05-07T15:31:49;2.80;;;1.65;;
34405;SDS011;20658;45.630;8.886;2023-05-07T15:34:23;2.03;;;1.50;;
34405;SDS011;20658;45.630;8.886;2023-05-07T15:36:56;7.93;;;1.90;;